sensor_id;sensor_type;location;lat;lon;timestamp;P1;durP1;ratioP1;P2;durP2;ratioP2
13347;SDS011;6743;49.934;9.138;2023-05-07T00:00:00;1.00;;;1.00;;
13347;SDS011;6743;49.934;9.138;2023-05-07T00:02:26;0.77;;;0.77;;
13347;SDS011;6743;49.934;9.138;2023-05-07T00:04:53;1.15;;;1.10;;
13347;SDS011;6743;49.934;9.138;2023-05-07T00:07:19;1.25;;;1.15;;
13347;SDS011;6743;49.934;9.138;2023-05-07T00:09:45;0.90;;;0.90;;
13347;SDS011;6743;49.934;9.138;2023-05-07T00:12:11;1.12;;;1.10;;
13347;SDS011;6743;49.934;9.138;2023-05-07T00:14:37;1.27;;;1.08;;
13347;SDS011;6743;49.934;9.138;2023-05-07T00:17:03;1.23;;;1.23;;
13347;SDS011;6743;49.934;9.138;2023-05-07T00:19:29;1.27;;;1.20;;
13347;SDS011;6743;49.934;9.138;2023-05-07T00:21:56;1.05;;;1.00;;
13347;SDS011;6743;49.934;9.138;2023-05-07T00:24:23;1.50;;;1.40;;
13347;SDS011;6743;49.934;9.138;2023-05-07T00:26:49;1.50;;;1.40;;
13347;SDS011;6743;49.934;9.138;2023-05-07T00:29:15;1.30;;;1.20;;
13347;SDS011;6743;49.934;9.138;2023-05-07T00:31:41;1.23;;;1.23;;
13347;SDS011;6743;49.934;9.138;2023-05-07T00:34:07;1.30;;;1.23;;
13347;SDS011;6743;49.934;9.138;2023-05-07T00:36:33;1.30;;;1.23;;
13347;SDS011;6743;49.934;9.138;2023-05-07T00:39:00;1.08;;;1.02;;
13347;SDS011;6743;49.934;9.138;2023-05-07T00:41:28;0.90;;;0.90;;
13347;SDS011;6743;49.934;9.138;2023-05-07T00:43:55;0.82;;;0.82;;
13347;SDS011;6743;49.934;9.138;2023-05-07T00:46:22;1.40;;;1.30;;
13347;SDS011;6743;49.934;9.138;2023-05-07T00:48:49;0.98;;;0.98;;
13347;SDS011;6743;49.934;9.138;2023-05-07T00:51:16;1.02;;;1.02;;
13347;SDS011;6743;49.934;9.138;2023-05-07T00:53:42;1.02;;;1.02;;
13347;SDS011;6743;49.934;9.138;2023-05-07T00:56:09;1.70;;;1.48;;
13347;SDS011;6743;49.934;9.138;2023-05-07T00:58:36;1.40;;;1.23;;
13347;SDS011;6743;49.934;9.138;2023-05-07T01:01:02;1.10;;;1.10;;
13347;SDS011;6743;49.934;9.138;2023-05-07T01:03:29;1.52;;;1.42;;
13347;SDS011;6743;49.934;9.138;2023-05-07T01:05:55;1.23;;;1.23;;
13347;SDS011;6743;49.934;9.138;2023-05-07T01:08:23;1.23;;;1.23;;
13347;SDS011;6743;49.934;9.138;2023-05-07T01:10:51;1.50;;;1.40;;
13347;SDS011;6743;49.934;9.138;2023-05-07T01:13:19;1.70;;;1.50;;
13347;SDS011;6743;49.934;9.138;2023-05-07T01:15:45;1.12;;;1.12;;
13347;SDS011;6743;49.934;9.138;2023-05-07T01:18:11;1.45;;;1.35;;
13347;SDS011;6743;49.934;9.138;2023-05-07T01:20:37;1.20;;;1.20;;
13347;SDS011;6743;49.934;9.138;2023-05-07T01:23:04;1.20;;;1.20;;
13347;SDS011;6743;49.934;9.138;2023-05-07T01:25:32;1.50;;;1.40;;
13347;SDS011;6743;49.934;9.138;2023-05-07T01:27:58;2.17;;;1.52;;
13347;SDS011;6743;49.934;9.138;2023-05-07T01:30:25;1.52;;;1.40;;
13347;SDS011;6743;49.934;9.138;2023-05-07T01:32:53;1.98;;;1.27;;
13347;SDS011;6743;49.934;9.138;2023-05-07T01:35:27;1.70;;;1.20;;
13347;SDS011;6743;49.934;9.138;2023-05-07T01:37:55;1.00;;;1.00;;
13347;SDS011;6743;49.934;9.138;2023-05-07T01:40:23;1.67;;;1.40;;
13347;SDS011;6743;49.934;9.138;2023-05-07T01:42:50;2.10;;;2.00;;
13347;SDS011;6743;49.934;9.138;2023-05-07T01:45:16;2.03;;;1.60;;
13347;SDS011;6743;49.934;9.138;2023-05-07T01:47:42;3.17;;;2.25;;
13347;SDS011;6743;49.934;9.138;2023-05-07T01:50:09;2.53;;;2.33;;
13347;SDS011;6743;49.934;9.138;2023-05-07T01:52:45;2.85;;;2.62;;
13347;SDS011;6743;49.934;9.138;2023-05-07T01:55:12;2.33;;;2.10;;
13347;SDS011;6743;49.934;9.138;2023-05-07T01:57:39;1.90;;;1.80;;
13347;SDS011;6743;49.934;9.138;2023-05-07T02:00:05;2.58;;;2.30;;
13347;SDS011;6743;49.934;9.138;2023-05-07T02:02:34;2.30;;;2.00;;
13347;SDS011;6743;49.934;9.138;2023-05-07T02:05:00;2.17;;;1.75;;
13347;SDS011;6743;49.934;9.138;2023-05-07T02:07:26;1.98;;;1.60;;
13347;SDS011;6743;49.934;9.138;2023-05-07T02:09:52;2.40;;;2.00;;
13347;SDS011;6743;49.934;9.138;2023-05-07T02:12:18;2.17;;;1.98;;
13347;SDS011;6743;49.934;9.138;2023-05-07T02:14:45;3.08;;;1.83;;
13347;SDS011;6743;49.934;9.138;2023-05-07T02:17:11;1.87;;;1.77;;
13347;SDS011;6743;49.934;9.138;2023-05-07T02:19:37;1.83;;;1.73;;
13347;SDS011;6743;49.934;9.138;2023-05-07T02:22:03;2.25;;;1.92;;
13347;SDS011;6743;49.934;9.138;2023-05-07T02:24:29;1.90;;;1.80;;
13347;SDS011;6743;49.934;9.138;2023-05-07T02:26:55;1.67;;;1.58;;
13347;SDS011;6743;49.934;9.138;2023-05-07T02:29:21;1.98;;;1.87;;
13347;SDS011;6743;49.934;9.138;2023-05-07T02:31:48;1.83;;;1.58;;
13347;SDS011;6743;49.934;9.138;2023-05-07T02:34:15;2.80;;;2.20;;
13347;SDS011;6743;49.934;9.138;2023-05-07T02:36:41;2.25;;;2.05;;
13347;SDS011;6743;49.934;9.138;2023-05-07T02:39:07;2.30;;;2.10;;
13347;SDS011;6743;49.934;9.138;2023-05-07T02:41:33;1.92;;;1.83;;
13347;SDS011;6743;49.934;9.138;2023-05-07T02:43:59;2.80;;;2.47;;
13347;SDS011;6743;49.934;9.138;2023-05-07T02:46:25;2.30;;;2.10;;
13347;SDS011;6743;49.934;9.138;2023-05-07T02:48:52;2.17;;;1.98;;
13347;SDS011;6743;49.934;9.138;2023-05-07T02:51:19;2.03;;;1.80;;
13347;SDS011;6743;49.934;9.138;2023-05-07T02:53:46;2.20;;;2.00;;
13347;SDS011;6743;49.934;9.138;2023-05-07T02:56:12;2.40;;;2.20;;
13347;SDS011;6743;49.934;9.138;2023-05-07T02:58:38;1.95;;;1.83;;
13347;SDS011;6743;49.934;9.138;2023-05-07T03:01:04;2.47;;;2.05;;
13347;SDS011;6743;49.934;9.138;2023-05-07T03:03:30;2.20;;;2.00;;
13347;SDS011;6743;49.934;9.138;2023-05-07T03:05:57;2.50;;;2.30;;
13347;SDS011;6743;49.934;9.138;2023-05-07T03:08:23;2.30;;;2.10;;
13347;SDS011;6743;49.934;9.138;2023-05-07T03:10:50;2.40;;;2.20;;
13347;SDS011;6743;49.934;9.138;2023-05-07T03:13:16;1.90;;;1.80;;
13347;SDS011;6743;49.934;9.138;2023-05-07T03:15:42;2.10;;;1.95;;
13347;SDS011;6743;49.934;9.138;2023-05-07T03:18:08;2.55;;;2.15;;
13347;SDS011;6743;49.934;9.138;2023-05-07T03:20:34;2.20;;;2.00;;
13347;SDS011;6743;49.934;9.138;2023-05-07T03:23:02;2.40;;;2.20;;
13347;SDS011;6743;49.934;9.138;2023-05-07T03:25:28;2.00;;;1.90;;
13347;SDS011;6743;49.934;9.138;2023-05-07T03:27:55;1.90;;;1.80;;
13347;SDS011;6743;49.934;9.138;2023-05-07T03:30:21;2.53;;;2.33;;
13347;SDS011;6743;49.934;9.138;2023-05-07T03:32:47;2.35;;;2.17;;
13347;SDS011;6743;49.934;9.138;2023-05-07T03:35:13;1.70;;;1.60;;
13347;SDS011;6743;49.934;9.138;2023-05-07T03:37:39;1.92;;;1.77;;
13347;SDS011;6743;49.934;9.138;2023-05-07T03:40:07;2.00;;;1.87;;
13347;SDS011;6743;49.934;9.138;2023-05-07T03:42:35;2.25;;;1.92;;
13347;SDS011;6743;49.934;9.138;2023-05-07T03:45:01;2.00;;;1.90;;
13347;SDS011;6743;49.934;9.138;2023-05-07T03:47:27;1.50;;;1.50;;
13347;SDS011;6743;49.934;9.138;2023-05-07T03:49:53;1.83;;;1.73;;
13347;SDS011;6743;49.934;9.138;2023-05-07T03:52:20;1.60;;;1.50;;
13347;SDS011;6743;49.934;9.138;2023-05-07T03:54:50;1.80;;;1.70;;
13347;SDS011;6743;49.934;9.138;2023-05-07T03:57:17;1.70;;;1.60;;
13347;SDS011;6743;49.934;9.138;2023-05-07T03:59:43;1.60;;;1.50;;
13347;SDS011;6743;49.934;9.138;2023-05-07T04:02:09;2.42;;;1.65;;
13347;SDS011;6743;49.934;9.138;2023-05-07T04:04:35;1.27;;;1.27;;
13347;SDS011;6743;49.934;9.138;2023-05-07T04:07:01;1.98;;;1.87;;
13347;SDS011;6743;49.934;9.138;2023-05-07T04:09:28;2.40;;;1.70;;
13347;SDS011;6743;49.934;9.138;2023-05-07T04:11:54;2.17;;;1.98;;
13347;SDS011;6743;49.934;9.138;2023-05-07T04:14:21;2.33;;;1.95;;
13347;SDS011;6743;49.934;9.138;2023-05-07T04:16:47;2.05;;;1.95;;
13347;SDS011;6743;49.934;9.138;2023-05-07T04:19:13;1.80;;;1.70;;
13347;SDS011;6743;49.934;9.138;2023-05-07T04:21:39;1.95;;;1.85;;
13347;SDS011;6743;49.934;9.138;2023-05-07T04:24:06;1.80;;;1.70;;
13347;SDS011;6743;49.934;9.138;2023-05-07T04:26:32;1.83;;;1.45;;
13347;SDS011;6743;49.934;9.138;2023-05-07T04:28:59;2.45;;;2.08;;
13347;SDS011;6743;49.934;9.138;2023-05-07T04:31:25;1.85;;;1.75;;
13347;SDS011;6743;49.934;9.138;2023-05-07T04:33:51;1.62;;;1.52;;
13347;SDS011;6743;49.934;9.138;2023-05-07T04:36:17;1.67;;;1.58;;
13347;SDS011;6743;49.934;9.138;2023-05-07T04:38:43;1.98;;;1.87;;
13347;SDS011;6743;49.934;9.138;2023-05-07T04:41:09;1.60;;;1.50;;
13347;SDS011;6743;49.934;9.138;2023-05-07T04:43:38;1.80;;;1.33;;
13347;SDS011;6743;49.934;9.138;2023-05-07T04:46:05;1.45;;;1.35;;
13347;SDS011;6743;49.934;9.138;2023-05-07T04:48:35;1.62;;;1.52;;
13347;SDS011;6743;49.934;9.138;2023-05-07T04:51:01;1.65;;;1.55;;
13347;SDS011;6743;49.934;9.138;2023-05-07T04:53:27;2.35;;;1.67;;
13347;SDS011;6743;49.934;9.138;2023-05-07T04:55:56;1.95;;;1.85;;
13347;SDS011;6743;49.934;9.138;2023-05-07T04:58:23;1.70;;;1.60;;
13347;SDS011;6743;49.934;9.138;2023-05-07T05:00:49;1.67;;;1.58;;
13347;SDS011;6743;49.934;9.138;2023-05-07T05:03:15;1.60;;;1.50;;
13347;SDS011;6743;49.934;9.138;2023-05-07T05:05:42;1.75;;;1.65;;
13347;SDS011;6743;49.934;9.138;2023-05-07T05:08:08;2.65;;;1.80;;
13347;SDS011;6743;49.934;9.138;2023-05-07T05:10:34;1.62;;;1.52;;
13347;SDS011;6743;49.934;9.138;2023-05-07T05:13:00;1.50;;;1.40;;
13347;SDS011;6743;49.934;9.138;2023-05-07T05:15:26;1.70;;;1.60;;
13347;SDS011;6743;49.934;9.138;2023-05-07T05:17:52;1.87;;;1.77;;
13347;SDS011;6743;49.934;9.138;2023-05-07T05:20:18;1.45;;;1.40;;
13347;SDS011;6743;49.934;9.138;2023-05-07T05:22:44;1.98;;;1.80;;
13347;SDS011;6743;49.934;9.138;2023-05-07T05:25:10;1.80;;;1.65;;
13347;SDS011;6743;49.934;9.138;2023-05-07T05:27:36;1.73;;;1.62;;
13347;SDS011;6743;49.934;9.138;2023-05-07T05:32:30;1.83;;;1.73;;
13347;SDS011;6743;49.934;9.138;2023-05-07T05:34:56;1.90;;;1.80;;
13347;SDS011;6743;49.934;9.138;2023-05-07T05:37:22;1.67;;;1.58;;
13347;SDS011;6743;49.934;9.138;2023-05-07T05:39:49;1.70;;;1.60;;
13347;SDS011;6743;49.934;9.138;2023-05-07T05:42:15;1.55;;;1.45;;
13347;SDS011;6743;49.934;9.138;2023-05-07T05:44:41;1.70;;;1.60;;
13347;SDS011;6743;49.934;9.138;2023-05-07T05:47:07;1.62;;;1.52;;
13347;SDS011;6743;49.934;9.138;2023-05-07T05:49:33;1.65;;;1.55;;
13347;SDS011;6743;49.934;9.138;2023-05-07T05:51:59;2.03;;;1.90;;
13347;SDS011;6743;49.934;9.138;2023-05-07T05:54:25;1.50;;;1.40;;
13347;SDS011;6743;49.934;9.138;2023-05-07T05:56:52;1.80;;;1.70;;
13347;SDS011;6743;49.934;9.138;2023-05-07T05:59:18;1.80;;;1.70;;
13347;SDS011;6743;49.934;9.138;2023-05-07T06:01:44;1.95;;;1.80;;
13347;SDS011;6743;49.934;9.138;2023-05-07T06:04:10;2.03;;;1.60;;
13347;SDS011;6743;49.934;9.138;2023-05-07T06:06:36;1.50;;;1.40;;
13347;SDS011;6743;49.934;9.138;2023-05-07T06:09:02;1.48;;;1.37;;
13347;SDS011;6743;49.934;9.138;2023-05-07T06:11:28;1.60;;;1.50;;
13347;SDS011;6743;49.934;9.138;2023-05-07T06:13:55;3.62;;;1.60;;
13347;SDS011;6743;49.934;9.138;2023-05-07T06:16:21;1.58;;;1.48;;
13347;SDS011;6743;49.934;9.138;2023-05-07T06:18:47;2.72;;;1.90;;
13347;SDS011;6743;49.934;9.138;2023-05-07T06:21:13;1.58;;;1.48;;
13347;SDS011;6743;49.934;9.138;2023-05-07T06:23:39;1.65;;;1.55;;
13347;SDS011;6743;49.934;9.138;2023-05-07T06:26:06;1.55;;;1.45;;
13347;SDS011;6743;49.934;9.138;2023-05-07T06:28:32;1.60;;;1.50;;
13347;SDS011;6743;49.934;9.138;2023-05-07T06:31:11;1.52;;;1.42;;
13347;SDS011;6743;49.934;9.138;2023-05-07T06:33:38;1.55;;;1.52;;
13347;SDS011;6743;49.934;9.138;2023-05-07T06:36:04;1.87;;;1.62;;
13347;SDS011;6743;49.934;9.138;2023-05-07T06:38:31;1.70;;;1.60;;
13347;SDS011;6743;49.934;9.138;2023-05-07T06:40:57;1.50;;;1.40;;
13347;SDS011;6743;49.934;9.138;2023-05-07T06:43:23;1.50;;;1.40;;
13347;SDS011;6743;49.934;9.138;2023-05-07T06:45:49;1.85;;;1.67;;
13347;SDS011;6743;49.934;9.138;2023-05-07T06:48:16;2.17;;;2.03;;
13347;SDS011;6743;49.934;9.138;2023-05-07T06:50:42;2.08;;;1.77;;
13347;SDS011;6743;49.934;9.138;2023-05-07T06:53:08;2.40;;;1.95;;
13347;SDS011;6743;49.934;9.138;2023-05-07T06:55:34;1.83;;;1.73;;
13347;SDS011;6743;49.934;9.138;2023-05-07T06:58:00;1.80;;;1.55;;
13347;SDS011;6743;49.934;9.138;2023-05-07T07:00:26;2.20;;;2.00;;
13347;SDS011;6743;49.934;9.138;2023-05-07T07:02:52;1.70;;;1.60;;
13347;SDS011;6743;49.934;9.138;2023-05-07T07:05:21;1.67;;;1.58;;
13347;SDS011;6743;49.934;9.138;2023-05-07T07:07:47;1.58;;;1.48;;
13347;SDS011;6743;49.934;9.138;2023-05-07T07:10:17;1.40;;;1.30;;
13347;SDS011;6743;49.934;9.138;2023-05-07T07:12:44;1.80;;;1.70;;
13347;SDS011;6743;49.934;9.138;2023-05-07T07:15:10;1.70;;;1.60;;
13347;SDS011;6743;49.934;9.138;2023-05-07T07:17:36;1.52;;;1.42;;
13347;SDS011;6743;49.934;9.138;2023-05-07T07:20:02;1.75;;;1.65;;
13347;SDS011;6743;49.934;9.138;2023-05-07T07:22:30;1.65;;;1.55;;
13347;SDS011;6743;49.934;9.138;2023-05-07T07:24:56;1.73;;;1.62;;
13347;SDS011;6743;49.934;9.138;2023-05-07T07:27:22;1.75;;;1.65;;
13347;SDS011;6743;49.934;9.138;2023-05-07T07:29:48;2.45;;;1.80;;
13347;SDS011;6743;49.934;9.138;2023-05-07T07:32:14;2.08;;;1.87;;
13347;SDS011;6743;49.934;9.138;2023-05-07T07:34:40;1.37;;;1.30;;
13347;SDS011;6743;49.934;9.138;2023-05-07T07:37:06;5.25;;;1.40;;
13347;SDS011;6743;49.934;9.138;2023-05-07T07:39:33;1.60;;;1.50;;
13347;SDS011;6743;49.934;9.138;2023-05-07T07:41:59;2.45;;;2.03;;
13347;SDS011;6743;49.934;9.138;2023-05-07T07:44:26;2.10;;;1.62;;
13347;SDS011;6743;49.934;9.138;2023-05-07T07:46:54;2.67;;;1.83;;
13347;SDS011;6743;49.934;9.138;2023-05-07T07:49:20;1.67;;;1.58;;
13347;SDS011;6743;49.934;9.138;2023-05-07T07:51:46;1.52;;;1.42;;
13347;SDS011;6743;49.934;9.138;2023-05-07T07:54:13;1.67;;;1.58;;
13347;SDS011;6743;49.934;9.138;2023-05-07T07:56:39;1.80;;;1.70;;
13347;SDS011;6743;49.934;9.138;2023-05-07T07:59:05;1.60;;;1.50;;
13347;SDS011;6743;49.934;9.138;2023-05-07T08:01:31;1.70;;;1.60;;
13347;SDS011;6743;49.934;9.138;2023-05-07T08:03:57;1.70;;;1.60;;
13347;SDS011;6743;49.934;9.138;2023-05-07T08:06:24;1.73;;;1.62;;
13347;SDS011;6743;49.934;9.138;2023-05-07T08:08:50;1.70;;;1.60;;
13347;SDS011;6743;49.934;9.138;2023-05-07T08:11:16;1.80;;;1.70;;
13347;SDS011;6743;49.934;9.138;2023-05-07T08:13:43;1.77;;;1.67;;
13347;SDS011;6743;49.934;9.138;2023-05-07T08:16:10;2.08;;;1.77;;
13347;SDS011;6743;49.934;9.138;2023-05-07T08:18:36;1.92;;;1.80;;
13347;SDS011;6743;49.934;9.138;2023-05-07T08:21:02;1.85;;;1.75;;
13347;SDS011;6743;49.934;9.138;2023-05-07T08:23:28;2.00;;;1.90;;
13347;SDS011;6743;49.934;9.138;2023-05-07T08:25:54;1.70;;;1.60;;
13347;SDS011;6743;49.934;9.138;2023-05-07T08:28:20;1.67;;;1.58;;
13347;SDS011;6743;49.934;9.138;2023-05-07T08:30:47;1.70;;;1.60;;
13347;SDS011;6743;49.934;9.138;2023-05-07T08:33:14;1.73;;;1.62;;
13347;SDS011;6743;49.934;9.138;2023-05-07T08:35:40;1.90;;;1.80;;
13347;SDS011;6743;49.934;9.138;2023-05-07T08:38:06;1.58;;;1.48;;
13347;SDS011;6743;49.934;9.138;2023-05-07T08:40:33;1.48;;;1.42;;
13347;SDS011;6743;49.934;9.138;2023-05-07T08:43:02;1.73;;;1.42;;
13347;SDS011;6743;49.934;9.138;2023-05-07T08:45:30;1.65;;;1.55;;
13347;SDS011;6743;49.934;9.138;2023-05-07T08:47:59;1.80;;;1.70;;
13347;SDS011;6743;49.934;9.138;2023-05-07T08:50:28;1.48;;;1.37;;
13347;SDS011;6743;49.934;9.138;2023-05-07T08:52:54;1.70;;;1.60;;
13347;SDS011;6743;49.934;9.138;2023-05-07T08:55:21;1.67;;;1.58;;
13347;SDS011;6743;49.934;9.138;2023-05-07T08:57:48;1.48;;;1.37;;
13347;SDS011;6743;49.934;9.138;2023-05-07T09:00:17;1.98;;;1.87;;
13347;SDS011;6743;49.934;9.138;2023-05-07T09:02:43;1.83;;;1.73;;
13347;SDS011;6743;49.934;9.138;2023-05-07T09:05:11;1.80;;;1.70;;
13347;SDS011;6743;49.934;9.138;2023-05-07T09:07:37;2.50;;;1.60;;
13347;SDS011;6743;49.934;9.138;2023-05-07T09:10:03;1.83;;;1.73;;
13347;SDS011;6743;49.934;9.138;2023-05-07T09:12:30;1.40;;;1.30;;
13347;SDS011;6743;49.934;9.138;2023-05-07T09:14:56;1.80;;;1.70;;
13347;SDS011;6743;49.934;9.138;2023-05-07T09:17:24;1.70;;;1.60;;
13347;SDS011;6743;49.934;9.138;2023-05-07T09:19:50;2.03;;;1.92;;
13347;SDS011;6743;49.934;9.138;2023-05-07T09:22:17;1.70;;;1.60;;
13347;SDS011;6743;49.934;9.138;2023-05-07T09:24:46;1.73;;;1.62;;
13347;SDS011;6743;49.934;9.138;2023-05-07T09:27:13;1.85;;;1.75;;
13347;SDS011;6743;49.934;9.138;2023-05-07T09:29:39;2.10;;;2.00;;
13347;SDS011;6743;49.934;9.138;2023-05-07T09:32:05;1.77;;;1.67;;
13347;SDS011;6743;49.934;9.138;2023-05-07T09:34:31;2.20;;;1.60;;
13347;SDS011;6743;49.934;9.138;2023-05-07T09:36:58;2.55;;;1.90;;
13347;SDS011;6743;49.934;9.138;2023-05-07T09:39:26;2.85;;;2.03;;
13347;SDS011;6743;49.934;9.138;2023-05-07T09:41:52;1.87;;;1.77;;
13347;SDS011;6743;49.934;9.138;2023-05-07T09:44:19;1.60;;;1.50;;
13347;SDS011;6743;49.934;9.138;2023-05-07T09:46:46;1.67;;;1.58;;
13347;SDS011;6743;49.934;9.138;2023-05-07T09:49:20;2.40;;;2.05;;
13347;SDS011;6743;49.934;9.138;2023-05-07T09:51:47;1.67;;;1.58;;
13347;SDS011;6743;49.934;9.138;2023-05-07T09:54:14;1.50;;;1.40;;
13347;SDS011;6743;49.934;9.138;2023-05-07T09:56:41;1.62;;;1.52;;
13347;SDS011;6743;49.934;9.138;2023-05-07T09:59:08;1.55;;;1.45;;
13347;SDS011;6743;49.934;9.138;2023-05-07T10:01:37;1.70;;;1.60;;
13347;SDS011;6743;49.934;9.138;2023-05-07T10:04:05;1.77;;;1.67;;
13347;SDS011;6743;49.934;9.138;2023-05-07T10:06:33;2.25;;;1.85;;
13347;SDS011;6743;49.934;9.138;2023-05-07T10:09:00;1.67;;;1.58;;
13347;SDS011;6743;49.934;9.138;2023-05-07T10:11:26;1.80;;;1.70;;
13347;SDS011;6743;49.934;9.138;2023-05-07T10:13:53;1.70;;;1.60;;
13347;SDS011;6743;49.934;9.138;2023-05-07T10:16:20;1.90;;;1.80;;
13347;SDS011;6743;49.934;9.138;2023-05-07T10:18:46;2.08;;;1.98;;
13347;SDS011;6743;49.934;9.138;2023-05-07T10:21:14;2.62;;;1.90;;
13347;SDS011;6743;49.934;9.138;2023-05-07T10:23:42;2.92;;;2.10;;
13347;SDS011;6743;49.934;9.138;2023-05-07T10:26:10;1.87;;;1.77;;
13347;SDS011;6743;49.934;9.138;2023-05-07T10:28:41;2.20;;;2.00;;
13347;SDS011;6743;49.934;9.138;2023-05-07T10:31:15;2.50;;;1.75;;
13347;SDS011;6743;49.934;9.138;2023-05-07T10:33:55;2.08;;;1.92;;
13347;SDS011;6743;49.934;9.138;2023-05-07T10:36:22;1.75;;;1.65;;
13347;SDS011;6743;49.934;9.138;2023-05-07T10:38:50;1.80;;;1.70;;
13347;SDS011;6743;49.934;9.138;2023-05-07T10:41:16;1.92;;;1.83;;
13347;SDS011;6743;49.934;9.138;2023-05-07T10:43:44;1.60;;;1.50;;
13347;SDS011;6743;49.934;9.138;2023-05-07T10:46:11;1.65;;;1.55;;
13347;SDS011;6743;49.934;9.138;2023-05-07T10:51:36;1.27;;;1.20;;
13347;SDS011;6743;49.934;9.138;2023-05-07T10:54:19;1.60;;;1.52;;
13347;SDS011;6743;49.934;9.138;2023-05-07T10:56:46;1.80;;;1.70;;
13347;SDS011;6743;49.934;9.138;2023-05-07T11:02:07;1.70;;;1.60;;
13347;SDS011;6743;49.934;9.138;2023-05-07T11:04:36;1.70;;;1.55;;
13347;SDS011;6743;49.934;9.138;2023-05-07T11:09:57;1.70;;;1.60;;
13347;SDS011;6743;49.934;9.138;2023-05-07T11:18:04;1.27;;;1.27;;
13347;SDS011;6743;49.934;9.138;2023-05-07T11:20:44;1.52;;;1.42;;
13347;SDS011;6743;49.934;9.138;2023-05-07T11:26:12;1.40;;;1.30;;
13347;SDS011;6743;49.934;9.138;2023-05-07T11:28:38;1.40;;;1.30;;
13347;SDS011;6743;49.934;9.138;2023-05-07T11:31:05;1.05;;;1.05;;
13347;SDS011;6743;49.934;9.138;2023-05-07T11:33:32;1.02;;;1.02;;
13347;SDS011;6743;49.934;9.138;2023-05-07T11:35:59;1.05;;;1.05;;
13347;SDS011;6743;49.934;9.138;2023-05-07T11:38:27;1.45;;;1.35;;
13347;SDS011;6743;49.934;9.138;2023-05-07T11:40:56;1.12;;;1.12;;
13347;SDS011;6743;49.934;9.138;2023-05-07T11:43:24;1.42;;;1.33;;
13347;SDS011;6743;49.934;9.138;2023-05-07T11:45:50;1.10;;;1.10;;
13347;SDS011;6743;49.934;9.138;2023-05-07T11:48:16;0.90;;;0.90;;
13347;SDS011;6743;49.934;9.138;2023-05-07T11:50:50;1.20;;;1.20;;
13347;SDS011;6743;49.934;9.138;2023-05-07T11:53:17;0.98;;;0.98;;
13347;SDS011;6743;49.934;9.138;2023-05-07T11:55:43;1.42;;;1.33;;
13347;SDS011;6743;49.934;9.138;2023-05-07T11:58:10;1.10;;;1.10;;
13347;SDS011;6743;49.934;9.138;2023-05-07T12:00:38;1.33;;;1.23;;
13347;SDS011;6743;49.934;9.138;2023-05-07T12:03:05;1.23;;;1.23;;
13347;SDS011;6743;49.934;9.138;2023-05-07T12:05:31;1.37;;;1.30;;
13347;SDS011;6743;49.934;9.138;2023-05-07T12:07:58;1.40;;;1.30;;
13347;SDS011;6743;49.934;9.138;2023-05-07T12:10:24;1.30;;;1.30;;
13347;SDS011;6743;49.934;9.138;2023-05-07T12:12:50;2.17;;;1.30;;
13347;SDS011;6743;49.934;9.138;2023-05-07T12:15:16;1.10;;;1.10;;
13347;SDS011;6743;49.934;9.138;2023-05-07T12:17:42;1.30;;;1.20;;
13347;SDS011;6743;49.934;9.138;2023-05-07T12:20:09;0.90;;;0.90;;
13347;SDS011;6743;49.934;9.138;2023-05-07T12:22:36;0.90;;;0.90;;
13347;SDS011;6743;49.934;9.138;2023-05-07T12:25:03;0.90;;;0.90;;
13347;SDS011;6743;49.934;9.138;2023-05-07T12:27:31;1.02;;;1.02;;
13347;SDS011;6743;49.934;9.138;2023-05-07T12:29:57;0.95;;;0.95;;
13347;SDS011;6743;49.934;9.138;2023-05-07T12:32:23;0.98;;;0.98;;
13347;SDS011;6743;49.934;9.138;2023-05-07T12:34:50;0.88;;;0.88;;
13347;SDS011;6743;49.934;9.138;2023-05-07T12:37:16;1.00;;;1.00;;
13347;SDS011;6743;49.934;9.138;2023-05-07T12:39:48;1.02;;;1.02;;
13347;SDS011;6743;49.934;9.138;2023-05-07T12:42:15;0.90;;;0.90;;
13347;SDS011;6743;49.934;9.138;2023-05-07T12:44:43;0.90;;;0.90;;
13347;SDS011;6743;49.934;9.138;2023-05-07T12:47:11;1.10;;;1.00;;
13347;SDS011;6743;49.934;9.138;2023-05-07T12:49:37;1.05;;;1.05;;
13347;SDS011;6743;49.934;9.138;2023-05-07T12:52:05;0.82;;;0.82;;
13347;SDS011;6743;49.934;9.138;2023-05-07T12:54:31;0.70;;;0.70;;
13347;SDS011;6743;49.934;9.138;2023-05-07T12:57:02;0.80;;;0.80;;
13347;SDS011;6743;49.934;9.138;2023-05-07T12:59:32;0.90;;;0.90;;
13347;SDS011;6743;49.934;9.138;2023-05-07T13:01:59;0.80;;;0.80;;
13347;SDS011;6743;49.934;9.138;2023-05-07T13:04:25;0.90;;;0.90;;
13347;SDS011;6743;49.934;9.138;2023-05-07T13:06:51;1.05;;;1.05;;
13347;SDS011;6743;49.934;9.138;2023-05-07T13:09:17;0.82;;;0.82;;
13347;SDS011;6743;49.934;9.138;2023-05-07T13:11:43;0.60;;;0.60;;
13347;SDS011;6743;49.934;9.138;2023-05-07T13:14:09;1.75;;;0.95;;
13347;SDS011;6743;49.934;9.138;2023-05-07T13:16:36;1.48;;;0.90;;
13347;SDS011;6743;49.934;9.138;2023-05-07T13:19:02;0.82;;;0.80;;
13347;SDS011;6743;49.934;9.138;2023-05-07T13:21:28;1.00;;;1.00;;
13347;SDS011;6743;49.934;9.138;2023-05-07T13:23:55;1.17;;;0.90;;
13347;SDS011;6743;49.934;9.138;2023-05-07T13:26:21;0.80;;;0.80;;
13347;SDS011;6743;49.934;9.138;2023-05-07T13:28:47;1.10;;;1.10;;
13347;SDS011;6743;49.934;9.138;2023-05-07T13:31:14;0.90;;;0.90;;
13347;SDS011;6743;49.934;9.138;2023-05-07T13:33:40;0.90;;;0.90;;
13347;SDS011;6743;49.934;9.138;2023-05-07T13:36:06;1.08;;;1.08;;
13347;SDS011;6743;49.934;9.138;2023-05-07T13:38:32;0.80;;;0.80;;
13347;SDS011;6743;49.934;9.138;2023-05-07T13:40:58;0.70;;;0.70;;
13347;SDS011;6743;49.934;9.138;2023-05-07T13:43:24;0.73;;;0.73;;
13347;SDS011;6743;49.934;9.138;2023-05-07T13:45:50;0.90;;;0.90;;
13347;SDS011;6743;49.934;9.138;2023-05-07T13:48:17;0.77;;;0.77;;
13347;SDS011;6743;49.934;9.138;2023-05-07T13:50:43;1.23;;;1.00;;
13347;SDS011;6743;49.934;9.138;2023-05-07T13:53:09;0.82;;;0.82;;
13347;SDS011;6743;49.934;9.138;2023-05-07T13:55:35;1.20;;;1.10;;
13347;SDS011;6743;49.934;9.138;2023-05-07T13:58:02;0.80;;;0.80;;
13347;SDS011;6743;49.934;9.138;2023-05-07T14:00:28;1.08;;;1.00;;
13347;SDS011;6743;49.934;9.138;2023-05-07T14:02:55;0.90;;;0.90;;
13347;SDS011;6743;49.934;9.138;2023-05-07T14:05:21;0.57;;;0.57;;
13347;SDS011;6743;49.934;9.138;2023-05-07T14:07:49;0.68;;;0.68;;
13347;SDS011;6743;49.934;9.138;2023-05-07T14:10:16;0.98;;;0.98;;
13347;SDS011;6743;49.934;9.138;2023-05-07T14:12:43;1.15;;;1.15;;
13347;SDS011;6743;49.934;9.138;2023-05-07T14:15:09;1.30;;;1.20;;
13347;SDS011;6743;49.934;9.138;2023-05-07T14:17:36;0.85;;;0.85;;
13347;SDS011;6743;49.934;9.138;2023-05-07T14:20:02;0.90;;;0.90;;
13347;SDS011;6743;49.934;9.138;2023-05-07T14:22:28;1.08;;;1.02;;
13347;SDS011;6743;49.934;9.138;2023-05-07T14:24:55;1.27;;;1.12;;
13347;SDS011;6743;49.934;9.138;2023-05-07T14:27:21;1.17;;;1.17;;
13347;SDS011;6743;49.934;9.138;2023-05-07T14:29:47;1.40;;;1.30;;
13347;SDS011;6743;49.934;9.138;2023-05-07T14:32:16;0.95;;;0.95;;
13347;SDS011;6743;49.934;9.138;2023-05-07T14:34:42;1.12;;;1.12;;
13347;SDS011;6743;49.934;9.138;2023-05-07T14:37:08;1.00;;;1.00;;
13347;SDS011;6743;49.934;9.138;2023-05-07T14:39:34;1.55;;;1.45;;
13347;SDS011;6743;49.934;9.138;2023-05-07T14:42:01;1.40;;;1.33;;
13347;SDS011;6743;49.934;9.138;2023-05-07T14:44:27;1.20;;;1.10;;
13347;SDS011;6743;49.934;9.138;2023-05-07T14:46:54;1.10;;;1.10;;
13347;SDS011;6743;49.934;9.138;2023-05-07T14:49:21;1.10;;;1.10;;
13347;SDS011;6743;49.934;9.138;2023-05-07T14:51:47;1.40;;;1.30;;
13347;SDS011;6743;49.934;9.138;2023-05-07T14:54:13;1.08;;;1.08;;
13347;SDS011;6743;49.934;9.138;2023-05-07T14:56:40;1.50;;;1.40;;
13347;SDS011;6743;49.934;9.138;2023-05-07T14:59:07;1.58;;;1.48;;
13347;SDS011;6743;49.934;9.138;2023-05-07T15:01:35;1.52;;;1.23;;
13347;SDS011;6743;49.934;9.138;2023-05-07T15:04:02;1.20;;;1.20;;
13347;SDS011;6743;49.934;9.138;2023-05-07T15:06:29;1.10;;;1.10;;
13347;SDS011;6743;49.934;9.138;2023-05-07T15:08:55;1.40;;;1.30;;
13347;SDS011;6743;49.934;9.138;2023-05-07T15:11:21;3.25;;;1.17;;
13347;SDS011;6743;49.934;9.138;2023-05-07T15:13:47;1.48;;;1.37;;
13347;SDS011;6743;49.934;9.138;2023-05-07T15:16:13;2.03;;;1.60;;